Time;durP1;ratioP1;P1;durP2;ratioP2;P2;SDS_P1;SDS_P2;PMS_P1;PMS_P2;Temp;Humidity;BMP_temperature;BMP_pressure;BME280_temperature;BME280_humidity;BME280_pressure;Samples;Min_cycle;Max_cycle;Signal;HPM_P1;HPM_P2
2022/04/09 00:01:08;;;;;;;8.02;2.45;;;;;;;;;;5020800;28;20056;-80
2022/04/09 00:03:34;;;;;;;6.97;2.22;;;;;;;;;;5020432;28;20037;-80
2022/04/09 00:06:00;;;;;;;9.80;2.42;;;;;;;;;;5023569;28;20091;-79
2022/04/09 00:08:26;;;;;;;4.80;2.05;;;;;;;;;;5024555;28;20045;-80
2022/04/09 00:10:52;;;;;;;11.48;2.80;;;;;;;;;;5015922;28;20038;-79
2022/04/09 00:13:19;;;;;;;8.45;2.38;;;;;;;;;;5012389;28;20057;-79
2022/04/09 00:15:45;;;;;;;8.60;2.67;;;;;;;;;;5013607;28;20053;-79
2022/04/09 00:18:14;;;;;;;8.25;2.45;;;;;;;;;;5015478;28;20490;-80
2022/04/09 00:20:40;;;;;;;6.50;2.20;;;;;;;;;;5022050;28;20195;-79
2022/04/09 00:23:10;;;;;;;5.70;1.80;;;;;;;;;;5024336;28;20038;-80
2022/04/09 00:25:36;;;;;;;4.32;1.98;;;;;;;;;;5017529;28;20045;-80
2022/04/09 00:28:02;;;;;;;3.78;1.95;;;;;;;;;;5013894;28;20045;-79
2022/04/09 00:30:28;;;;;;;5.35;1.90;;;;;;;;;;5045537;28;20423;-80
2022/04/09 00:32:54;;;;;;;6.75;2.30;;;;;;;;;;5020140;28;20154;-80
2022/04/09 00:35:20;;;;;;;7.70;2.65;;;;;;;;;;5018234;28;20046;-80
2022/04/09 00:37:49;;;;;;;8.20;2.38;;;;;;;;;;5009178;28;20116;-80
2022/04/09 00:40:18;;;;;;;8.52;2.53;;;;;;;;;;5012609;28;20625;-81
2022/04/09 00:42:44;;;;;;;8.45;2.67;;;;;;;;;;5041520;28;20061;-80
2022/04/09 00:45:13;;;;;;;6.22;1.98;;;;;;;;;;5016542;28;20041;-80
2022/04/09 00:47:39;;;;;;;8.23;2.13;;;;;;;;;;5012465;28;20049;-80
2022/04/09 00:50:06;;;;;;;4.18;1.90;;;;;;;;;;5020611;28;20378;-79
2022/04/09 00:52:38;;;;;;;8.65;2.42;;;;;;;;;;5009072;28;20057;-80
2022/04/09 00:55:05;;;;;;;4.80;2.15;;;;;;;;;;5005629;28;20037;-80
2022/04/09 00:57:34;;;;;;;8.15;2.10;;;;;;;;;;5019987;28;20050;-79
2022/04/09 01:00:06;;;;;;;7.90;2.55;;;;;;;;;;5015926;28;20039;-79
2022/04/09 01:02:32;;;;;;;6.82;2.35;;;;;;;;;;5012418;28;20050;-80
2022/04/09 01:04:58;;;;;;;7.22;2.47;;;;;;;;;;5006985;28;20046;-79
2022/04/09 01:07:25;;;;;;;9.73;2.53;;;;;;;;;;5016135;28;20046;-80
2022/04/09 01:09:51;;;;;;;6.57;2.35;;;;;;;;;;5020943;28;20041;-79
2022/04/09 01:12:17;;;;;;;5.35;2.28;;;;;;;;;;5019301;28;20096;-79
2022/04/09 01:14:43;;;;;;;8.07;2.00;;;;;;;;;;5017698;28;20038;-79
2022/04/09 01:17:09;;;;;;;3.45;1.73;;;;;;;;;;5015890;28;20052;-79
2022/04/09 01:19:35;;;;;;;6.10;2.28;;;;;;;;;;5010401;28;20042;-78
2022/04/09 01:22:04;;;;;;;6.10;2.08;;;;;;;;;;5018392;28;20600;-79
2022/04/09 01:24:30;;;;;;;4.13;1.92;;;;;;;;;;5027203;28;20037;-78
2022/04/09 01:26:58;;;;;;;3.88;2.03;;;;;;;;;;5018401;28;20050;-79
2022/04/09 01:29:24;;;;;;;6.50;2.30;;;;;;;;;;5015416;28;20132;-79
2022/04/09 01:31:50;;;;;;;7.00;2.03;;;;;;;;;;5019908;28;20103;-79
2022/04/09 01:34:16;;;;;;;8.65;2.35;;;;;;;;;;5017341;28;20046;-79
2022/04/09 01:36:42;;;;;;;4.47;2.20;;;;;;;;;;5010059;28;20034;-79
2022/04/09 01:39:08;;;;;;;7.68;2.30;;;;;;;;;;5023681;28;20042;-78
2022/04/09 01:41:34;;;;;;;6.22;2.05;;;;;;;;;;5022456;28;20084;-79
2022/04/09 01:44:00;;;;;;;9.30;2.40;;;;;;;;;;5026781;28;20053;-78
2022/04/09 01:46:26;;;;;;;9.55;2.47;;;;;;;;;;5020505;28;20042;-78
2022/04/09 01:48:52;;;;;;;5.38;2.33;;;;;;;;;;5011518;28;20042;-78
2022/04/09 01:51:18;;;;;;;7.30;2.08;;;;;;;;;;5019304;28;20046;-79
2022/04/09 01:53:44;;;;;;;2.67;1.77;;;;;;;;;;5022852;28;20525;-79
2022/04/09 01:56:10;;;;;;;3.80;1.30;;;;;;;;;;5024470;28;20092;-79
2022/04/09 01:58:36;;;;;;;2.05;1.60;;;;;;;;;;5007659;28;20076;-79
2022/04/09 02:01:06;;;;;;;4.57;1.98;;;;;;;;;;5028715;28;20076;-78
2022/04/09 02:03:32;;;;;;;4.78;2.22;;;;;;;;;;5016362;28;20050;-79
2022/04/09 02:05:58;;;;;;;7.28;2.50;;;;;;;;;;5027455;28;20103;-79
2022/04/09 02:08:25;;;;;;;7.82;2.08;;;;;;;;;;5034271;28;20053;-79
2022/04/09 02:10:51;;;;;;;7.28;2.13;;;;;;;;;;5024127;28;20041;-78
2022/04/09 02:13:18;;;;;;;8.30;2.03;;;;;;;;;;5008300;28;20095;-78
2022/04/09 02:15:44;;;;;;;3.90;1.95;;;;;;;;;;5038199;28;20046;-79
2022/04/09 02:18:11;;;;;;;7.22;2.25;;;;;;;;;;5023053;28;20060;-79
2022/04/09 02:20:37;;;;;;;5.85;2.45;;;;;;;;;;5025399;28;20049;-79
2022/04/09 02:23:03;;;;;;;7.75;2.33;;;;;;;;;;5019972;28;20126;-79
2022/04/09 02:25:29;;;;;;;8.98;2.47;;;;;;;;;;5016573;28;20089;-79
2022/04/09 02:27:55;;;;;;;11.00;2.58;;;;;;;;;;5022412;28;20456;-79
2022/04/09 02:30:21;;;;;;;8.68;2.75;;;;;;;;;;5023680;28;20050;-79
2022/04/09 02:32:51;;;;;;;8.63;2.47;;;;;;;;;;5021206;28;20038;-79
2022/04/09 02:35:21;;;;;;;7.07;2.10;;;;;;;;;;5022673;28;20041;-79
2022/04/09 02:37:47;;;;;;;5.88;2.20;;;;;;;;;;5022601;28;20048;-79
2022/04/09 02:40:13;;;;;;;4.38;2.10;;;;;;;;;;5016837;28;20050;-79
2022/04/09 02:42:40;;;;;;;6.75;2.20;;;;;;;;;;5016568;28;20095;-80
2022/04/09 02:45:07;;;;;;;7.75;2.28;;;;;;;;;;5048577;28;20046;-79
2022/04/09 02:47:33;;;;;;;6.93;2.10;;;;;;;;;;5015059;28;20041;-78
2022/04/09 02:50:00;;;;;;;4.88;2.25;;;;;;;;;;5009527;28;20052;-79
2022/04/09 02:52:29;;;;;;;6.72;2.10;;;;;;;;;;5020617;28;20042;-79
2022/04/09 02:54:55;;;;;;;11.93;3.00;;;;;;;;;;5021264;28;20051;-79
2022/04/09 02:57:22;;;;;;;5.32;2.63;;;;;;;;;;5020452;28;20467;-78
2022/04/09 02:59:48;;;;;;;7.95;2.75;;;;;;;;;;5053695;28;20104;-79
2022/04/09 03:02:14;;;;;;;7.00;2.08;;;;;;;;;;5015177;28;20049;-79
2022/04/09 03:04:41;;;;;;;7.32;2.13;;;;;;;;;;5047725;28;20059;-79
2022/04/09 03:07:07;;;;;;;8.07;2.33;;;;;;;;;;5020474;28;20046;-79
2022/04/09 03:09:32;;;;;;;7.13;3.05;;;;;;;;;;5030725;28;20499;-79
2022/04/09 03:11:59;;;;;;;7.43;2.53;;;;;;;;;;5012801;28;20136;-79
2022/04/09 03:14:25;;;;;;;8.73;2.63;;;;;;;;;;5015367;28;20129;-78
2022/04/09 03:16:51;;;;;;;4.93;2.00;;;;;;;;;;5015128;28;20077;-79
2022/04/09 03:19:17;;;;;;;7.05;2.47;;;;;;;;;;5023161;28;20084;-79
2022/04/09 03:21:43;;;;;;;6.35;2.10;;;;;;;;;;5013035;28;20046;-79
2022/04/09 03:24:09;;;;;;;7.30;2.30;;;;;;;;;;5026820;28;20141;-79
2022/04/09 03:26:35;;;;;;;5.30;2.38;;;;;;;;;;5023090;28;20080;-79
2022/04/09 03:29:01;;;;;;;9.38;2.58;;;;;;;;;;5023743;28;20056;-79
2022/04/09 03:31:27;;;;;;;6.32;2.13;;;;;;;;;;5009994;28;20049;-79
2022/04/09 03:33:53;;;;;;;10.68;2.55;;;;;;;;;;5025145;28;20041;-79
2022/04/09 03:36:19;;;;;;;9.07;3.03;;;;;;;;;;5004120;28;20054;-80
2022/04/09 03:38:48;;;;;;;7.13;2.60;;;;;;;;;;5014019;28;20090;-79
2022/04/09 03:41:14;;;;;;;7.55;2.72;;;;;;;;;;5021391;28;20076;-79
2022/04/09 03:43:40;;;;;;;6.35;2.00;;;;;;;;;;5016676;28;20092;-79
2022/04/09 03:46:06;;;;;;;5.93;2.08;;;;;;;;;;5027746;28;20077;-80
2022/04/09 03:48:32;;;;;;;8.35;2.28;;;;;;;;;;5012789;28;20084;-79
2022/04/09 03:51:01;;;;;;;5.07;2.10;;;;;;;;;;5013577;28;20465;-80
2022/04/09 03:53:27;;;;;;;7.72;1.90;;;;;;;;;;5024251;28;20045;-80
2022/04/09 03:55:53;;;;;;;6.28;2.20;;;;;;;;;;5049721;28;20628;-80
2022/04/09 03:58:20;;;;;;;5.60;1.73;;;;;;;;;;5026432;28;20589;-79
2022/04/09 04:00:48;;;;;;;5.00;2.03;;;;;;;;;;5012783;28;20124;-80
2022/04/09 04:03:14;;;;;;;4.88;1.85;;;;;;;;;;5007258;28;20041;-79
2022/04/09 04:05:40;;;;;;;10.48;2.50;;;;;;;;;;5025794;28;20044;-80
2022/04/09 04:08:07;;;;;;;9.15;2.55;;;;;;;;;;5024973;28;20065;-79
2022/04/09 04:10:35;;;;;;;10.70;2.40;;;;;;;;;;5005986;28;20156;-79
2022/04/09 04:13:02;;;;;;;10.90;2.40;;;;;;;;;;5044094;28;20041;-79
2022/04/09 04:15:28;;;;;;;8.88;2.70;;;;;;;;;;5009749;28;20056;-80
2022/04/09 04:17:55;;;;;;;8.75;2.70;;;;;;;;;;5010305;28;20457;-79
2022/04/09 04:20:21;;;;;;;9.73;2.70;;;;;;;;;;5018259;28;20496;-79
2022/04/09 04:22:51;;;;;;;8.80;2.42;;;;;;;;;;5012523;28;20044;-79
2022/04/09 04:25:17;;;;;;;4.95;2.05;;;;;;;;;;5023655;28;20045;-79
2022/04/09 04:27:45;;;;;;;10.93;2.88;;;;;;;;;;5018697;28;20507;-80
2022/04/09 04:30:11;;;;;;;9.18;2.72;;;;;;;;;;5005090;28;20434;-79
2022/04/09 04:32:37;;;;;;;10.07;2.60;;;;;;;;;;5021974;28;20482;-79
2022/04/09 04:35:03;;;;;;;8.20;2.72;;;;;;;;;;5020545;28;20049;-78
2022/04/09 04:37:39;;;;;;;4.80;2.00;;;;;;;;;;5024167;28;20050;-79
2022/04/09 04:40:06;;;;;;;10.35;2.63;;;;;;;;;;5021206;28;20049;-79
2022/04/09 04:42:32;;;;;;;6.25;2.10;;;;;;;;;;5019982;28;20049;-79
2022/04/09 04:44:58;;;;;;;6.78;2.60;;;;;;;;;;5021680;28;20037;-79
2022/04/09 04:47:30;;;;;;;8.25;3.00;;;;;;;;;;5023203;28;20045;-79
2022/04/09 04:49:56;;;;;;;7.50;2.40;;;;;;;;;;5022260;28;20480;-80
2022/04/09 04:52:22;;;;;;;7.40;2.35;;;;;;;;;;5020139;28;20085;-78
2022/04/09 04:54:48;;;;;;;4.05;1.92;;;;;;;;;;5017220;28;20038;-80
2022/04/09 04:57:14;;;;;;;4.60;1.90;;;;;;;;;;5019359;28;20037;-80
2022/04/09 04:59:40;;;;;;;7.15;2.00;;;;;;;;;;5020852;28;20053;-80
2022/04/09 05:02:07;;;;;;;8.57;2.50;;;;;;;;;;5010350;28;20091;-80
2022/04/09 05:04:33;;;;;;;2.65;1.77;;;;;;;;;;5016725;28;20033;-80
2022/04/09 05:06:59;;;;;;;6.63;2.22;;;;;;;;;;5031865;28;20049;-80
2022/04/09 05:09:25;;;;;;;5.03;1.95;;;;;;;;;;5012270;28;20045;-79
2022/04/09 05:11:51;;;;;;;6.60;2.60;;;;;;;;;;5026586;28;20050;-80
2022/04/09 05:14:17;;;;;;;6.45;2.40;;;;;;;;;;5009822;28;20053;-80
2022/04/09 05:16:43;;;;;;;4.93;2.30;;;;;;;;;;5025413;28;20093;-80
2022/04/09 05:19:09;;;;;;;4.70;2.10;;;;;;;;;;5028827;28;20072;-79
2022/04/09 05:21:35;;;;;;;6.03;2.25;;;;;;;;;;5019624;28;20049;-80
2022/04/09 05:24:01;;;;;;;6.80;2.25;;;;;;;;;;5005810;28;20047;-79
2022/04/09 05:26:27;;;;;;;7.90;2.50;;;;;;;;;;5050502;28;20123;-79
2022/04/09 05:28:54;;;;;;;7.57;2.50;;;;;;;;;;5020744;28;20409;-79
2022/04/09 05:31:27;;;;;;;6.82;2.40;;;;;;;;;;5050368;28;20546;-80
2022/04/09 05:33:53;;;;;;;11.82;2.88;;;;;;;;;;5026104;28;20085;-79
2022/04/09 05:36:19;;;;;;;7.35;2.30;;;;;;;;;;5011529;28;20104;-80
2022/04/09 05:38:45;;;;;;;7.70;2.30;;;;;;;;;;5046935;28;20125;-79
2022/04/09 05:41:11;;;;;;;8.57;2.67;;;;;;;;;;5025716;28;20099;-80
2022/04/09 05:43:44;;;;;;;8.43;2.92;;;;;;;;;;5020071;28;20405;-79
2022/04/09 05:46:10;;;;;;;7.13;2.50;;;;;;;;;;5009759;28;20132;-80
2022/04/09 05:48:36;;;;;;;5.88;2.40;;;;;;;;;;5018519;28;20066;-80
2022/04/09 05:51:05;;;;;;;8.35;2.67;;;;;;;;;;5023248;28;20051;-79
2022/04/09 05:53:31;;;;;;;5.43;2.33;;;;;;;;;;5027514;28;20045;-79
2022/04/09 05:55:57;;;;;;;7.10;2.63;;;;;;;;;;5028589;28;20049;-79
2022/04/09 05:58:23;;;;;;;10.20;2.97;;;;;;;;;;5008522;28;20046;-79
2022/04/09 06:00:49;;;;;;;8.88;3.15;;;;;;;;;;5024187;28;20101;-80
2022/04/09 06:03:17;;;;;;;10.52;3.40;;;;;;;;;;5022725;28;20586;-80
2022/04/09 06:05:43;;;;;;;12.35;3.63;;;;;;;;;;5029556;28;20080;-79
2022/04/09 06:08:09;;;;;;;8.77;3.00;;;;;;;;;;5014756;28;20097;-80
2022/04/09 06:10:35;;;;;;;8.52;2.58;;;;;;;;;;5014954;28;20052;-79
2022/04/09 06:13:01;;;;;;;8.63;2.50;;;;;;;;;;5015640;28;20050;-79
2022/04/09 06:15:27;;;;;;;5.10;2.30;;;;;;;;;;5016162;28;20131;-79
2022/04/09 06:17:53;;;;;;;5.15;2.28;;;;;;;;;;5012037;28;20377;-79
2022/04/09 06:20:19;;;;;;;8.25;2.08;;;;;;;;;;5016408;28;20045;-79
2022/04/09 06:22:45;;;;;;;5.30;2.10;;;;;;;;;;5015432;28;20108;-79
2022/04/09 06:25:12;;;;;;;8.10;2.47;;;;;;;;;;5020377;28;20057;-79
2022/04/09 06:27:39;;;;;;;7.43;2.30;;;;;;;;;;5020227;28;20033;-79
2022/04/09 06:30:06;;;;;;;7.25;2.13;;;;;;;;;;5018755;28;20076;-80
2022/04/09 06:32:32;;;;;;;9.63;2.70;;;;;;;;;;5020813;28;20048;-79
2022/04/09 06:34:58;;;;;;;5.22;2.17;;;;;;;;;;5017866;28;20121;-79
2022/04/09 06:37:24;;;;;;;7.95;2.40;;;;;;;;;;5020272;28;20052;-79
2022/04/09 06:39:50;;;;;;;7.30;2.20;;;;;;;;;;5013555;28;20050;-80
2022/04/09 06:42:16;;;;;;;7.78;2.20;;;;;;;;;;5026374;28;20434;-80
2022/04/09 06:44:42;;;;;;;4.95;2.55;;;;;;;;;;5004188;28;20044;-80
2022/04/09 06:47:08;;;;;;;8.57;2.20;;;;;;;;;;5012439;28;20553;-79
2022/04/09 06:49:36;;;;;;;6.47;2.35;;;;;;;;;;5016817;28;20049;-81
2022/04/09 06:52:02;;;;;;;6.40;2.00;;;;;;;;;;5027462;28;20370;-79
2022/04/09 06:54:28;;;;;;;6.18;1.90;;;;;;;;;;5018110;28;20073;-79
2022/04/09 06:56:54;;;;;;;7.18;2.47;;;;;;;;;;5016619;28;20197;-80
2022/04/09 06:59:20;;;;;;;6.78;2.15;;;;;;;;;;5011835;28;20401;-80
2022/04/09 07:01:46;;;;;;;6.63;2.13;;;;;;;;;;5015017;28;20033;-79
2022/04/09 07:04:16;;;;;;;6.20;2.00;;;;;;;;;;4991270;28;20137;-80
2022/04/09 07:06:44;;;;;;;3.70;2.08;;;;;;;;;;5018554;28;20037;-79
2022/04/09 07:09:10;;;;;;;6.63;2.30;;;;;;;;;;5024217;28;20054;-79
2022/04/09 07:11:36;;;;;;;4.07;1.90;;;;;;;;;;5012079;28;20040;-80
2022/04/09 07:14:02;;;;;;;6.05;2.28;;;;;;;;;;5012921;28;20041;-80
2022/04/09 07:16:28;;;;;;;4.43;1.55;;;;;;;;;;5019615;28;20401;-79
2022/04/09 07:18:55;;;;;;;5.53;1.90;;;;;;;;;;5028087;28;20041;-79
2022/04/09 07:21:21;;;;;;;3.03;1.70;;;;;;;;;;5007741;28;20057;-79
2022/04/09 07:23:47;;;;;;;3.08;1.77;;;;;;;;;;5021448;28;20490;-78
2022/04/09 07:26:13;;;;;;;3.35;1.67;;;;;;;;;;5021288;28;20130;-79
2022/04/09 07:28:39;;;;;;;5.78;1.80;;;;;;;;;;5017127;28;20050;-80
2022/04/09 07:31:05;;;;;;;3.88;2.03;;;;;;;;;;5010319;28;20440;-79
2022/04/09 07:33:31;;;;;;;3.15;2.03;;;;;;;;;;5014764;28;20099;-80
2022/04/09 07:35:57;;;;;;;3.10;1.90;;;;;;;;;;5008404;28;21569;-81
2022/04/09 07:38:23;;;;;;;2.10;1.60;;;;;;;;;;5033736;28;20489;-78
2022/04/09 07:40:49;;;;;;;2.53;1.60;;;;;;;;;;5020957;28;20486;-79
2022/04/09 07:43:15;;;;;;;5.55;1.98;;;;;;;;;;5017291;28;20124;-79
2022/04/09 07:45:41;;;;;;;5.68;1.70;;;;;;;;;;5013556;28;20045;-80
2022/04/09 07:48:08;;;;;;;4.47;2.00;;;;;;;;;;5018737;28;20041;-79
2022/04/09 07:50:34;;;;;;;5.75;2.08;;;;;;;;;;5019351;28;20471;-80
2022/04/09 07:53:00;;;;;;;8.60;2.75;;;;;;;;;;5012831;28;20046;-79
2022/04/09 07:55:27;;;;;;;8.02;2.30;;;;;;;;;;5017728;28;20042;-80
2022/04/09 07:57:54;;;;;;;6.75;2.20;;;;;;;;;;5015533;28;20042;-79
2022/04/09 08:00:21;;;;;;;8.13;2.38;;;;;;;;;;5006863;28;20057;-77
2022/04/09 08:02:47;;;;;;;10.07;3.10;;;;;;;;;;5001207;28;20390;-79
2022/04/09 08:05:15;;;;;;;6.78;2.35;;;;;;;;;;5021242;28;20054;-77
2022/04/09 08:07:41;;;;;;;8.52;2.88;;;;;;;;;;5022033;28;20054;-79
2022/04/09 08:10:08;;;;;;;5.28;2.30;;;;;;;;;;5054085;28;20081;-77
2022/04/09 08:12:35;;;;;;;12.48;4.85;;;;;;;;;;5024839;28;20041;-77
2022/04/09 08:15:01;;;;;;;5.57;2.58;;;;;;;;;;5028630;28;20045;-77
2022/04/09 08:17:27;;;;;;;7.50;2.13;;;;;;;;;;5020853;28;20062;-78
2022/04/09 08:19:55;;;;;;;8.63;2.80;;;;;;;;;;5014765;28;20045;-78
2022/04/09 08:22:22;;;;;;;9.20;2.55;;;;;;;;;;5024797;28;20123;-77
2022/04/09 08:24:48;;;;;;;10.23;2.22;;;;;;;;;;5024613;28;20414;-77
2022/04/09 08:27:15;;;;;;;6.35;2.35;;;;;;;;;;5002325;28;20134;-78
2022/04/09 08:29:41;;;;;;;6.90;2.60;;;;;;;;;;5025790;28;20058;-78
2022/04/09 08:32:07;;;;;;;5.15;1.85;;;;;;;;;;5016205;28;20536;-75
2022/04/09 08:34:35;;;;;;;5.45;2.08;;;;;;;;;;5027961;28;20087;-77
2022/04/09 08:37:02;;;;;;;6.13;2.00;;;;;;;;;;5041688;28;20152;-77
2022/04/09 08:39:28;;;;;;;8.38;2.38;;;;;;;;;;5021471;28;20076;-78
2022/04/09 08:41:58;;;;;;;8.20;2.53;;;;;;;;;;5003677;28;20056;-78
2022/04/09 08:44:24;;;;;;;8.43;2.72;;;;;;;;;;5017413;28;20050;-77
2022/04/09 08:46:51;;;;;;;9.90;2.45;;;;;;;;;;5026671;28;20052;-79
2022/04/09 08:49:17;;;;;;;9.27;3.00;;;;;;;;;;5021995;28;20045;-78
2022/04/09 08:51:43;;;;;;;5.30;2.40;;;;;;;;;;5015836;28;20037;-78
2022/04/09 08:54:09;;;;;;;5.40;2.35;;;;;;;;;;5017580;28;20048;-78
2022/04/09 08:56:36;;;;;;;9.25;2.80;;;;;;;;;;5033911;28;20049;-79
2022/04/09 08:59:03;;;;;;;10.55;3.03;;;;;;;;;;5005487;28;20053;-78
2022/04/09 09:01:30;;;;;;;7.30;2.95;;;;;;;;;;5003720;28;20497;-78
2022/04/09 09:03:57;;;;;;;8.45;2.50;;;;;;;;;;5002231;28;20042;-83
2022/04/09 09:06:28;;;;;;;7.82;3.08;;;;;;;;;;5043479;28;20060;-78
2022/04/09 09:08:57;;;;;;;11.55;2.88;;;;;;;;;;5010392;28;20576;-78
2022/04/09 09:11:24;;;;;;;5.57;2.17;;;;;;;;;;5003400;28;20129;-79
2022/04/09 09:13:51;;;;;;;7.97;2.50;;;;;;;;;;5004515;28;20520;-78
2022/04/09 09:16:30;;;;;;;10.73;3.00;;;;;;;;;;4997431;28;20054;-79
2022/04/09 09:18:57;;;;;;;7.60;2.58;;;;;;;;;;5001630;28;20077;-78
2022/04/09 09:21:26;;;;;;;7.85;2.55;;;;;;;;;;5003809;28;20046;-79
2022/04/09 09:23:52;;;;;;;9.95;2.72;;;;;;;;;;5004125;28;20053;-79
2022/04/09 09:26:22;;;;;;;8.60;2.92;;;;;;;;;;5035648;28;20095;-79
2022/04/09 09:28:58;;;;;;;10.30;2.67;;;;;;;;;;5010702;28;20061;-79
2022/04/09 09:31:40;;;;;;;9.75;2.53;;;;;;;;;;5006443;28;20050;-79
2022/04/09 09:34:14;;;;;;;7.07;2.58;;;;;;;;;;5012916;28;20116;-79
2022/04/09 09:36:42;;;;;;;8.07;2.58;;;;;;;;;;5008867;28;20397;-79
2022/04/09 09:39:09;;;;;;;8.18;2.42;;;;;;;;;;5007970;28;20547;-79
2022/04/09 09:41:35;;;;;;;8.52;2.88;;;;;;;;;;5011248;28;20045;-79
2022/04/09 09:44:05;;;;;;;6.07;2.30;;;;;;;;;;5011607;28;20073;-80
2022/04/09 09:46:31;;;;;;;7.57;2.80;;;;;;;;;;5010752;28;20165;-79
2022/04/09 09:48:57;;;;;;;9.13;2.65;;;;;;;;;;5013275;28;20045;-79
2022/04/09 09:51:24;;;;;;;7.88;2.58;;;;;;;;;;5003800;28;20129;-78
2022/04/09 09:53:50;;;;;;;5.82;2.45;;;;;;;;;;5011622;28;20624;-79
2022/04/09 09:56:35;;;;;;;8.85;2.58;;;;;;;;;;5007375;28;20091;-79
2022/04/09 09:59:02;;;;;;;8.00;2.08;;;;;;;;;;5016598;28;20087;-79
2022/04/09 10:01:29;;;;;;;5.93;2.60;;;;;;;;;;5006910;28;20561;-79
2022/04/09 10:03:55;;;;;;;4.55;2.15;;;;;;;;;;5010896;28;20042;-79
2022/04/09 10:06:21;;;;;;;6.00;2.22;;;;;;;;;;5013835;28;20049;-78
2022/04/09 10:08:47;;;;;;;5.38;1.98;;;;;;;;;;5012110;28;20046;-78
2022/04/09 10:11:17;;;;;;;4.97;2.28;;;;;;;;;;5007478;28;20095;-78
2022/04/09 10:13:44;;;;;;;5.68;2.05;;;;;;;;;;5007817;28;20532;-79
2022/04/09 10:16:12;;;;;;;10.38;2.28;;;;;;;;;;5008978;28;20540;-79
2022/04/09 10:18:39;;;;;;;7.38;2.35;;;;;;;;;;5043036;28;20457;-78
2022/04/09 10:21:05;;;;;;;3.38;1.92;;;;;;;;;;5011393;28;20479;-78
2022/04/09 10:23:33;;;;;;;4.38;1.77;;;;;;;;;;5013457;28;20497;-78
2022/04/09 10:26:17;;;;;;;3.35;1.52;;;;;;;;;;5017787;28;20209;-78
2022/04/09 10:28:44;;;;;;;7.00;1.92;;;;;;;;;;5026372;28;20100;-78
2022/04/09 10:31:32;;;;;;;4.65;1.80;;;;;;;;;;5016226;28;20103;-78
2022/04/09 10:33:59;;;;;;;3.67;1.75;;;;;;;;;;5005119;28;20328;-78
2022/04/09 10:36:40;;;;;;;5.22;2.10;;;;;;;;;;5032839;28;20042;-78
2022/04/09 10:39:23;;;;;;;6.78;2.45;;;;;;;;;;5015676;28;20045;-78
2022/04/09 10:41:49;;;;;;;3.25;2.00;;;;;;;;;;5040026;28;20553;-79
2022/04/09 10:44:37;;;;;;;4.05;2.15;;;;;;;;;;5008265;28;20120;-79
2022/04/09 10:47:05;;;;;;;4.55;2.28;;;;;;;;;;5015275;28;20060;-78
2022/04/09 10:49:31;;;;;;;5.90;2.13;;;;;;;;;;5007182;28;20379;-78
2022/04/09 10:52:16;;;;;;;4.85;2.30;;;;;;;;;;5018157;28;20037;-78
2022/04/09 10:55:01;;;;;;;5.47;2.20;;;;;;;;;;5007532;28;20104;-80
2022/04/09 10:57:27;;;;;;;7.18;2.20;;;;;;;;;;5014027;28;20104;-78
2022/04/09 10:59:59;;;;;;;2.72;1.63;;;;;;;;;;5012724;28;20045;-78
2022/04/09 11:02:31;;;;;;;5.80;1.88;;;;;;;;;;5008008;28;20038;-78
2022/04/09 11:05:16;;;;;;;4.53;2.00;;;;;;;;;;5013226;28;20045;-82
2022/04/09 11:08:14;;;;;;;10.20;2.20;;;;;;;;;;5040058;28;20437;-79
2022/04/09 11:10:41;;;;;;;7.03;1.70;;;;;;;;;;5007085;28;20058;-78
2022/04/09 11:13:10;;;;;;;3.78;1.58;;;;;;;;;;5010310;28;20421;-79
2022/04/09 11:15:38;;;;;;;3.88;1.50;;;;;;;;;;5017111;28;20088;-79
2022/04/09 11:18:04;;;;;;;2.03;1.42;;;;;;;;;;5017091;28;20125;-78
2022/04/09 11:20:31;;;;;;;2.38;1.27;;;;;;;;;;5013557;28;20081;-79
2022/04/09 11:23:06;;;;;;;6.00;1.90;;;;;;;;;;5012524;28;20049;-79
2022/04/09 11:25:33;;;;;;;4.50;1.60;;;;;;;;;;5006468;28;20123;-80
2022/04/09 11:28:12;;;;;;;2.97;1.80;;;;;;;;;;5012499;28;20482;-79
2022/04/09 11:30:39;;;;;;;2.47;1.40;;;;;;;;;;5005047;28;21216;-79
2022/04/09 11:33:05;;;;;;;3.53;1.55;;;;;;;;;;5018646;28;20049;-79
2022/04/09 11:35:35;;;;;;;3.45;1.48;;;;;;;;;;5039303;28;20520;-79
2022/04/09 11:38:02;;;;;;;6.85;1.70;;;;;;;;;;5009865;28;20128;-79
2022/04/09 11:40:28;;;;;;;4.00;1.38;;;;;;;;;;5001643;28;20113;-79
2022/04/09 11:42:55;;;;;;;2.03;1.50;;;;;;;;;;5009542;28;20052;-79
2022/04/09 11:45:23;;;;;;;3.47;1.50;;;;;;;;;;5007859;28;20057;-79
2022/04/09 11:47:49;;;;;;;4.70;1.73;;;;;;;;;;5011639;28;20041;-79
2022/04/09 11:50:16;;;;;;;3.15;1.60;;;;;;;;;;5009309;28;20046;-80
2022/04/09 11:52:42;;;;;;;2.88;1.48;;;;;;;;;;5010233;28;20049;-80
2022/04/09 11:55:12;;;;;;;3.30;1.85;;;;;;;;;;5005176;28;20108;-80
2022/04/09 11:57:38;;;;;;;6.00;2.05;;;;;;;;;;5045512;28;20068;-80
2022/04/09 12:00:06;;;;;;;2.65;1.60;;;;;;;;;;5011943;28;20038;-80
2022/04/09 12:02:32;;;;;;;4.47;1.90;;;;;;;;;;5013308;28;20041;-80
2022/04/09 12:04:59;;;;;;;4.68;2.13;;;;;;;;;;5006579;28;20039;-79
2022/04/09 12:07:27;;;;;;;3.38;1.83;;;;;;;;;;5013836;28;20172;-79
2022/04/09 12:09:54;;;;;;;3.20;1.85;;;;;;;;;;5012476;28;20111;-79
2022/04/09 12:12:20;;;;;;;3.25;1.60;;;;;;;;;;5018893;28;20068;-80
2022/04/09 12:14:53;;;;;;;4.60;1.75;;;;;;;;;;5041941;28;20041;-80
2022/04/09 12:17:22;;;;;;;3.17;1.65;;;;;;;;;;5013857;28;20448;-80
2022/04/09 12:19:48;;;;;;;6.95;1.88;;;;;;;;;;5007217;28;20050;-79
2022/04/09 12:22:17;;;;;;;5.82;2.00;;;;;;;;;;5011673;28;20056;-79
2022/04/09 12:24:56;;;;;;;2.92;2.03;;;;;;;;;;5045192;28;20037;-80
2022/04/09 12:27:23;;;;;;;6.20;2.45;;;;;;;;;;5013285;28;20607;-79
2022/04/09 12:29:51;;;;;;;3.25;1.88;;;;;;;;;;5011220;28;20501;-79
2022/04/09 12:32:24;;;;;;;4.45;1.73;;;;;;;;;;5007534;28;20091;-78
2022/04/09 12:34:59;;;;;;;2.65;1.63;;;;;;;;;;5010915;28;20057;-77
2022/04/09 12:37:26;;;;;;;5.55;1.88;;;;;;;;;;5011076;28;20148;-78
2022/04/09 12:39:53;;;;;;;2.72;1.80;;;;;;;;;;5009845;28;20052;-77
2022/04/09 12:42:34;;;;;;;3.25;1.60;;;;;;;;;;5008891;28;20056;-79
2022/04/09 12:45:13;;;;;;;2.75;1.40;;;;;;;;;;5007890;28;20042;-80
2022/04/09 12:47:40;;;;;;;3.30;1.58;;;;;;;;;;5003680;28;20061;-80
2022/04/09 12:50:06;;;;;;;2.15;1.42;;;;;;;;;;5010339;28;20453;-80
2022/04/09 12:52:32;;;;;;;4.38;1.33;;;;;;;;;;5039604;28;20072;-79
2022/04/09 12:54:58;;;;;;;5.43;1.45;;;;;;;;;;5038352;28;20070;-80
2022/04/09 12:57:25;;;;;;;2.70;1.60;;;;;;;;;;5014504;28;20498;-80
2022/04/09 12:59:51;;;;;;;4.10;1.60;;;;;;;;;;5013333;28;20391;-81
2022/04/09 13:02:17;;;;;;;7.60;1.90;;;;;;;;;;5013891;28;20050;-81
2022/04/09 13:04:43;;;;;;;4.15;1.90;;;;;;;;;;5022696;28;20393;-81
2022/04/09 13:07:09;;;;;;;4.55;1.73;;;;;;;;;;5056315;28;20041;-80
2022/04/09 13:09:35;;;;;;;5.65;2.72;;;;;;;;;;5024896;28;20395;-81
2022/04/09 13:12:02;;;;;;;6.32;2.97;;;;;;;;;;5015204;28;20040;-81
2022/04/09 13:14:29;;;;;;;10.07;3.17;;;;;;;;;;5013617;28;20054;-81
2022/04/09 13:16:55;;;;;;;9.48;2.42;;;;;;;;;;5021549;28;20101;-81
2022/04/09 13:19:21;;;;;;;6.25;2.28;;;;;;;;;;5016426;28;20489;-83
2022/04/09 13:21:47;;;;;;;4.47;2.13;;;;;;;;;;5017493;28;20181;-83
2022/04/09 13:24:14;;;;;;;6.13;2.65;;;;;;;;;;5022164;28;20037;-82
2022/04/09 13:26:40;;;;;;;5.13;2.20;;;;;;;;;;5009553;28;20058;-83
2022/04/09 13:29:06;;;;;;;3.05;1.67;;;;;;;;;;5013370;28;20128;-84
2022/04/09 13:31:33;;;;;;;2.88;1.42;;;;;;;;;;5012524;28;20109;-78
2022/04/09 13:34:02;;;;;;;3.80;1.50;;;;;;;;;;5012673;28;20049;-81
2022/04/09 13:36:28;;;;;;;3.03;1.70;;;;;;;;;;5011544;28;20109;-78
2022/04/09 13:38:54;;;;;;;8.50;2.10;;;;;;;;;;5012439;28;20054;-78
2022/04/09 13:41:23;;;;;;;6.63;2.20;;;;;;;;;;5035499;28;20132;-77
2022/04/09 13:43:49;;;;;;;6.40;2.65;;;;;;;;;;5005687;28;20168;-78
2022/04/09 13:46:15;;;;;;;7.35;2.70;;;;;;;;;;5015348;28;20375;-78
2022/04/09 13:48:41;;;;;;;6.40;2.80;;;;;;;;;;5010390;28;20061;-77
2022/04/09 13:51:08;;;;;;;5.57;2.50;;;;;;;;;;5046940;28;20541;-77
2022/04/09 13:53:34;;;;;;;5.30;2.20;;;;;;;;;;5024283;28;20053;-77
2022/04/09 13:56:01;;;;;;;7.28;2.42;;;;;;;;;;5008568;28;20045;-77
2022/04/09 13:58:27;;;;;;;7.57;2.75;;;;;;;;;;5016773;28;20037;-77
2022/04/09 14:00:53;;;;;;;8.20;2.80;;;;;;;;;;5025915;28;20048;-77
2022/04/09 14:03:19;;;;;;;6.25;2.40;;;;;;;;;;5010806;28;20042;-76
2022/04/09 14:05:45;;;;;;;6.22;2.55;;;;;;;;;;5018457;28;20052;-78
2022/04/09 14:08:11;;;;;;;8.00;2.50;;;;;;;;;;5012827;28;20045;-78
2022/04/09 14:10:38;;;;;;;10.35;2.88;;;;;;;;;;5010345;28;20046;-79
2022/04/09 14:13:04;;;;;;;8.57;2.58;;;;;;;;;;5011162;28;20040;-78
2022/04/09 14:15:29;;;;;;;6.60;2.22;;;;;;;;;;5037553;28;20053;-78
2022/04/09 14:17:56;;;;;;;5.78;2.15;;;;;;;;;;5008270;28;20050;-78
2022/04/09 14:20:22;;;;;;;12.70;3.08;;;;;;;;;;5010874;28;20050;-79
2022/04/09 14:22:48;;;;;;;6.10;2.83;;;;;;;;;;5006887;28;20141;-79
2022/04/09 14:25:14;;;;;;;3.80;2.20;;;;;;;;;;5010261;28;20056;-81
2022/04/09 14:27:40;;;;;;;5.90;2.40;;;;;;;;;;5010229;28;20076;-80
2022/04/09 14:30:06;;;;;;;4.85;2.03;;;;;;;;;;5008512;28;20092;-79
2022/04/09 14:32:32;;;;;;;3.70;1.90;;;;;;;;;;5005791;28;20050;-79
2022/04/09 14:34:58;;;;;;;4.60;2.58;;;;;;;;;;5017448;28;20041;-81
2022/04/09 14:37:26;;;;;;;2.63;2.03;;;;;;;;;;5020883;28;20418;-79
2022/04/09 14:39:52;;;;;;;4.30;1.98;;;;;;;;;;5009935;28;20068;-79
2022/04/09 14:42:18;;;;;;;3.78;2.15;;;;;;;;;;5000773;28;20132;-81
2022/04/09 14:44:44;;;;;;;5.38;2.35;;;;;;;;;;5009992;28;20504;-81